TGL016C EGPH-LFBZ
Flight info
| Callsign | TGL016C |
|---|---|
| Flight time | N/A |
| Altitude | 37000 |
| Route | GOSAM P600 FENIK L612 NAVSO DCT ADZOP DCT EGTOC DCT NOKIN N862 KARNO/N0441F360 DCT ALHUP DCT ABWIV DCT PACSE DCT SIDHO DCT TONQU/N0442F370 DCT MANIG DCT BADUR DCT KORER UM616 TUPAR DCT CNA DCT VAVIX/N0368F190 DCT MAGEC |
| Aircraft | A320/M-SDE3FGHIRWY/LB1 |
Departure
| Time | N/A |
|---|---|
| Airport | Edinburgh Airport (EGPH) |
Arrival
| Time | 2026-04-22 18:37 |
|---|---|
| Airport | Biarritz Pays Basque airport (LFBZ) |
| Time | Latitude | Longitude | Altitude | Speed | Heading |
|---|---|---|---|---|---|
| 2026-04-22 17:22 | 50.83308 | -3.22375 | 37008 ft | 448 kts | 187° |
| 2026-04-22 17:23 | 50.74017 | -3.24241 | 37011 ft | 448 kts | 187° |
| 2026-04-22 17:23 | 50.64768 | -3.26085 | 37015 ft | 448 kts | 187° |
| 2026-04-22 17:24 | 50.58573 | -3.27305 | 37018 ft | 447 kts | 187° |
| 2026-04-22 17:24 | 50.52391 | -3.28529 | 37018 ft | 447 kts | 187° |
| 2026-04-22 17:25 | 50.46243 | -3.29745 | 37018 ft | 447 kts | 187° |
| 2026-04-22 17:25 | 50.40060 | -3.30953 | 37017 ft | 447 kts | 186° |
| 2026-04-22 17:26 | 50.33885 | -3.30835 | 37014 ft | 447 kts | 177° |
| 2026-04-22 17:26 | 50.27669 | -3.30267 | 37013 ft | 447 kts | 177° |
| 2026-04-22 17:27 | 50.21440 | -3.29707 | 37012 ft | 447 kts | 177° |
| 2026-04-22 17:27 | 50.15263 | -3.29178 | 37012 ft | 447 kts | 177° |
| 2026-04-22 17:28 | 50.09040 | -3.28630 | 37012 ft | 447 kts | 177° |
| 2026-04-22 17:28 | 50.02821 | -3.28067 | 37012 ft | 447 kts | 177° |
| 2026-04-22 17:29 | 49.96644 | -3.27520 | 37013 ft | 447 kts | 177° |
| 2026-04-22 17:29 | 49.90413 | -3.26976 | 37013 ft | 447 kts | 177° |
| 2026-04-22 17:30 | 49.84192 | -3.26433 | 37013 ft | 447 kts | 177° |
| 2026-04-22 17:30 | 49.78016 | -3.25768 | 37013 ft | 447 kts | 171° |
| 2026-04-22 17:31 | 49.71896 | -3.24000 | 37011 ft | 447 kts | 169° |
| 2026-04-22 17:31 | 49.65777 | -3.22209 | 37011 ft | 447 kts | 169° |
| 2026-04-22 17:32 | 49.59696 | -3.20441 | 37011 ft | 447 kts | 169° |
| 2026-04-22 17:32 | 49.53565 | -3.18661 | 37011 ft | 447 kts | 169° |
| 2026-04-22 17:33 | 49.47473 | -3.16894 | 37012 ft | 447 kts | 169° |
| 2026-04-22 17:33 | 49.41341 | -3.15114 | 37012 ft | 447 kts | 169° |
| 2026-04-22 17:34 | 49.35216 | -3.13344 | 37012 ft | 447 kts | 169° |
| 2026-04-22 17:34 | 49.29135 | -3.11597 | 37012 ft | 447 kts | 169° |
| 2026-04-22 17:35 | 49.23009 | -3.09841 | 37012 ft | 447 kts | 169° |
| 2026-04-22 17:35 | 49.16914 | -3.08103 | 37012 ft | 447 kts | 169° |
| 2026-04-22 17:36 | 49.10793 | -3.06357 | 37012 ft | 447 kts | 169° |
| 2026-04-22 17:36 | 49.05697 | -3.04893 | 37012 ft | 447 kts | 169° |
| 2026-04-22 17:37 | 48.99575 | -3.03147 | 37012 ft | 447 kts | 169° |
| 2026-04-22 17:37 | 48.93474 | -3.01422 | 37012 ft | 447 kts | 169° |
| 2026-04-22 17:38 | 48.87344 | -2.99701 | 37012 ft | 447 kts | 169° |
| 2026-04-22 17:38 | 48.81250 | -2.97980 | 37012 ft | 447 kts | 169° |
| 2026-04-22 17:39 | 48.75126 | -2.96248 | 37012 ft | 447 kts | 169° |
| 2026-04-22 17:40 | 48.66094 | -2.92883 | 37008 ft | 447 kts | 163° |
| 2026-04-22 17:40 | 48.60097 | -2.90197 | 37007 ft | 447 kts | 163° |
| 2026-04-22 17:41 | 48.54159 | -2.87557 | 37007 ft | 447 kts | 163° |
| 2026-04-22 17:41 | 48.48174 | -2.84901 | 37006 ft | 448 kts | 163° |
| 2026-04-22 17:42 | 48.42192 | -2.82239 | 37007 ft | 448 kts | 163° |
| 2026-04-22 17:42 | 48.36205 | -2.79578 | 37005 ft | 448 kts | 164° |
| 2026-04-22 17:43 | 48.30253 | -2.76961 | 37006 ft | 448 kts | 164° |
| 2026-04-22 17:43 | 48.24253 | -2.74327 | 37007 ft | 448 kts | 164° |
| 2026-04-22 17:44 | 48.18291 | -2.71706 | 37009 ft | 448 kts | 164° |
| 2026-04-22 17:44 | 48.12291 | -2.69069 | 37011 ft | 448 kts | 164° |
| 2026-04-22 17:45 | 48.06304 | -2.66459 | 37013 ft | 448 kts | 164° |
| 2026-04-22 17:45 | 48.00341 | -2.63870 | 37014 ft | 448 kts | 164° |
| 2026-04-22 17:46 | 47.94337 | -2.61259 | 37015 ft | 448 kts | 164° |
| 2026-04-22 17:46 | 47.88378 | -2.58672 | 37013 ft | 448 kts | 164° |
| 2026-04-22 17:47 | 47.82379 | -2.56064 | 37011 ft | 448 kts | 164° |
| 2026-04-22 17:47 | 47.76419 | -2.53496 | 37012 ft | 448 kts | 164° |
| 2026-04-22 17:48 | 47.70545 | -2.50459 | 37012 ft | 447 kts | 152° |
| 2026-04-22 17:48 | 47.65560 | -2.44987 | 37007 ft | 447 kts | 133° |
| 2026-04-22 17:49 | 47.61481 | -2.38001 | 37002 ft | 447 kts | 131° |
| 2026-04-22 17:49 | 47.57417 | -2.31071 | 37002 ft | 448 kts | 131° |
| 2026-04-22 17:50 | 47.53321 | -2.24115 | 37004 ft | 448 kts | 131° |
| 2026-04-22 17:50 | 47.49223 | -2.17153 | 37005 ft | 448 kts | 131° |
| 2026-04-22 17:51 | 47.45124 | -2.10186 | 37006 ft | 448 kts | 131° |
| 2026-04-22 17:51 | 47.41046 | -2.03280 | 37007 ft | 448 kts | 131° |
| 2026-04-22 17:52 | 47.36927 | -1.96342 | 37007 ft | 448 kts | 131° |
| 2026-04-22 17:52 | 47.32837 | -1.89459 | 37009 ft | 448 kts | 131° |
| 2026-04-22 17:53 | 47.28732 | -1.82528 | 37010 ft | 448 kts | 131° |
| 2026-04-22 17:53 | 47.24629 | -1.75624 | 37010 ft | 448 kts | 131° |
| 2026-04-22 17:54 | 47.20512 | -1.68714 | 37010 ft | 448 kts | 131° |
| 2026-04-22 17:54 | 47.16417 | -1.61882 | 37009 ft | 448 kts | 134° |
| 2026-04-22 17:55 | 47.11810 | -1.55691 | 37008 ft | 447 kts | 138° |
| 2026-04-22 17:55 | 47.07162 | -1.49582 | 37007 ft | 448 kts | 138° |
| 2026-04-22 17:56 | 47.02547 | -1.43527 | 37007 ft | 448 kts | 138° |
| 2026-04-22 17:56 | 46.97901 | -1.37439 | 37007 ft | 448 kts | 138° |
| 2026-04-22 17:57 | 46.93275 | -1.31383 | 37007 ft | 448 kts | 138° |
| 2026-04-22 17:57 | 46.88620 | -1.25302 | 37007 ft | 448 kts | 138° |
| 2026-04-22 17:58 | 46.83979 | -1.19263 | 37006 ft | 448 kts | 138° |
| 2026-04-22 17:58 | 46.79321 | -1.13200 | 37006 ft | 448 kts | 138° |
| 2026-04-22 17:59 | 46.74675 | -1.07182 | 37007 ft | 448 kts | 139° |
| 2026-04-22 17:59 | 46.70005 | -1.01151 | 37008 ft | 448 kts | 139° |
| 2026-04-22 18:00 | 46.66116 | -0.96128 | 37008 ft | 448 kts | 139° |
| 2026-04-22 18:00 | 46.60684 | -0.89137 | 37008 ft | 448 kts | 139° |
| 2026-04-22 18:01 | 46.56004 | -0.83113 | 37007 ft | 448 kts | 139° |
| 2026-04-22 18:01 | 46.51368 | -0.77135 | 37007 ft | 448 kts | 139° |
| 2026-04-22 18:02 | 46.46695 | -0.71124 | 37008 ft | 448 kts | 139° |
| 2026-04-22 18:02 | 46.41595 | -0.65976 | 37008 ft | 447 kts | 155° |
| 2026-04-22 18:03 | 46.35725 | -0.62963 | 37006 ft | 446 kts | 162° |
| 2026-04-22 18:03 | 46.29824 | -0.60242 | 37005 ft | 447 kts | 162° |
| 2026-04-22 18:04 | 46.23917 | -0.57520 | 37004 ft | 447 kts | 162° |
| 2026-04-22 18:04 | 46.18015 | -0.54802 | 37004 ft | 447 kts | 162° |
| 2026-04-22 18:05 | 46.12084 | -0.52085 | 37005 ft | 447 kts | 162° |
| 2026-04-22 18:05 | 46.06138 | -0.49372 | 37005 ft | 447 kts | 162° |
| 2026-04-22 18:06 | 46.00232 | -0.46681 | 37005 ft | 447 kts | 162° |
| 2026-04-22 18:06 | 45.94279 | -0.43976 | 37006 ft | 447 kts | 162° |
| 2026-04-22 18:07 | 45.89347 | -0.41739 | 37007 ft | 447 kts | 162° |
| 2026-04-22 18:07 | 45.82432 | -0.38601 | 37007 ft | 447 kts | 162° |
| 2026-04-22 18:08 | 45.76485 | -0.35916 | 37008 ft | 447 kts | 162° |
| 2026-04-22 18:08 | 45.70582 | -0.33257 | 37007 ft | 447 kts | 163° |
| 2026-04-22 18:09 | 45.64443 | -0.32013 | 37005 ft | 445 kts | 182° |
| 2026-04-22 18:09 | 45.58356 | -0.33323 | 37001 ft | 445 kts | 191° |
| 2026-04-22 18:10 | 45.52273 | -0.35047 | 37000 ft | 445 kts | 191° |
| 2026-04-22 18:10 | 45.46178 | -0.36760 | 37000 ft | 446 kts | 191° |
| 2026-04-22 18:11 | 45.40084 | -0.38464 | 37001 ft | 446 kts | 191° |
| 2026-04-22 18:11 | 45.34029 | -0.40159 | 37002 ft | 446 kts | 191° |
| 2026-04-22 18:12 | 45.27928 | -0.41876 | 36708 ft | 447 kts | 191° |
| 2026-04-22 18:12 | 45.24873 | -0.42731 | 36458 ft | 446 kts | 191° |
| 2026-04-22 18:12 | 45.22857 | -0.43295 | 36294 ft | 446 kts | 191° |
| 2026-04-22 18:12 | 45.18789 | -0.44428 | 35960 ft | 446 kts | 191° |
| 2026-04-22 18:13 | 45.15736 | -0.45274 | 35710 ft | 446 kts | 191° |
| 2026-04-22 18:13 | 45.12690 | -0.46120 | 35244 ft | 448 kts | 191° |
| 2026-04-22 18:13 | 45.09610 | -0.46979 | 34336 ft | 454 kts | 191° |
| 2026-04-22 18:13 | 45.06515 | -0.47843 | 33324 ft | 462 kts | 191° |
| 2026-04-22 18:14 | 45.03317 | -0.48731 | 32674 ft | 461 kts | 191° |
| 2026-04-22 18:14 | 45.00221 | -0.49590 | 32096 ft | 458 kts | 191° |
| 2026-04-22 18:14 | 44.97106 | -0.50454 | 31489 ft | 455 kts | 191° |
| 2026-04-22 18:14 | 44.93999 | -0.51316 | 30887 ft | 452 kts | 191° |
| 2026-04-22 18:15 | 44.90933 | -0.52163 | 30296 ft | 450 kts | 191° |
| 2026-04-22 18:15 | 44.87870 | -0.53006 | 29707 ft | 447 kts | 191° |
| 2026-04-22 18:15 | 44.84825 | -0.53844 | 29129 ft | 443 kts | 191° |
| 2026-04-22 18:15 | 44.81802 | -0.54677 | 28549 ft | 440 kts | 191° |
| 2026-04-22 18:16 | 44.78837 | -0.55493 | 27985 ft | 437 kts | 191° |
| 2026-04-22 18:16 | 44.75865 | -0.56307 | 27430 ft | 433 kts | 191° |
| 2026-04-22 18:16 | 44.72916 | -0.57115 | 26882 ft | 429 kts | 191° |
| 2026-04-22 18:16 | 44.69992 | -0.57915 | 26347 ft | 425 kts | 191° |
| 2026-04-22 18:17 | 44.67098 | -0.58709 | 25827 ft | 421 kts | 191° |
| 2026-04-22 18:17 | 44.64234 | -0.59495 | 25319 ft | 417 kts | 191° |
| 2026-04-22 18:17 | 44.61437 | -0.60263 | 24826 ft | 412 kts | 191° |
| 2026-04-22 18:17 | 44.58629 | -0.61030 | 24339 ft | 408 kts | 191° |
| 2026-04-22 18:18 | 44.55853 | -0.61783 | 23849 ft | 403 kts | 191° |
| 2026-04-22 18:18 | 44.53107 | -0.62530 | 23368 ft | 399 kts | 191° |
| 2026-04-22 18:18 | 44.50395 | -0.63273 | 22882 ft | 395 kts | 191° |
| 2026-04-22 18:18 | 44.47727 | -0.64002 | 22414 ft | 392 kts | 191° |
| 2026-04-22 18:19 | 44.45061 | -0.64725 | 21932 ft | 388 kts | 191° |
| 2026-04-22 18:19 | 44.42413 | -0.65443 | 21453 ft | 385 kts | 191° |
| 2026-04-22 18:19 | 44.39785 | -0.66156 | 20972 ft | 382 kts | 191° |
| 2026-04-22 18:19 | 44.37180 | -0.66860 | 20483 ft | 379 kts | 191° |
| 2026-04-22 18:20 | 44.34623 | -0.67552 | 20003 ft | 377 kts | 191° |
| 2026-04-22 18:20 | 44.32053 | -0.68249 | 19521 ft | 375 kts | 191° |
| 2026-04-22 18:20 | 44.29496 | -0.68984 | 19030 ft | 372 kts | 195° |
| 2026-04-22 18:20 | 44.27085 | -0.70253 | 18544 ft | 370 kts | 207° |
| 2026-04-22 18:21 | 44.24910 | -0.72138 | 18074 ft | 367 kts | 215° |
| 2026-04-22 18:21 | 44.23513 | -0.73482 | 17755 ft | 366 kts | 215° |
| 2026-04-22 18:21 | 44.20737 | -0.76145 | 17131 ft | 363 kts | 214° |
| 2026-04-22 18:21 | 44.18657 | -0.78130 | 16673 ft | 361 kts | 214° |
| 2026-04-22 18:22 | 44.17280 | -0.79441 | 16373 ft | 360 kts | 214° |
| 2026-04-22 18:22 | 44.15212 | -0.81410 | 15898 ft | 358 kts | 214° |
| 2026-04-22 18:22 | 44.13157 | -0.83364 | 15450 ft | 356 kts | 214° |
| 2026-04-22 18:22 | 44.11114 | -0.85310 | 15001 ft | 354 kts | 214° |
| 2026-04-22 18:23 | 44.09082 | -0.87244 | 14547 ft | 352 kts | 214° |
| 2026-04-22 18:23 | 44.07064 | -0.89161 | 14096 ft | 350 kts | 214° |
| 2026-04-22 18:23 | 44.05082 | -0.91040 | 13651 ft | 348 kts | 214° |
| 2026-04-22 18:24 | 44.01106 | -0.94814 | 12737 ft | 343 kts | 214° |
| 2026-04-22 18:24 | 43.99138 | -0.96681 | 12283 ft | 341 kts | 214° |
| 2026-04-22 18:24 | 43.95262 | -1.00352 | 11373 ft | 336 kts | 214° |
| 2026-04-22 18:25 | 43.93333 | -1.02174 | 10909 ft | 334 kts | 214° |
| 2026-04-22 18:25 | 43.91415 | -1.03984 | 10455 ft | 331 kts | 214° |
| 2026-04-22 18:25 | 43.89523 | -1.05767 | 10108 ft | 325 kts | 214° |
| 2026-04-22 18:26 | 43.85925 | -1.09157 | 9852 ft | 300 kts | 214° |
| 2026-04-22 18:26 | 43.84227 | -1.10757 | 9664 ft | 291 kts | 214° |
| 2026-04-22 18:26 | 43.82549 | -1.12338 | 9244 ft | 291 kts | 214° |
| 2026-04-22 18:26 | 43.80905 | -1.13881 | 8869 ft | 289 kts | 214° |
| 2026-04-22 18:27 | 43.79241 | -1.15442 | 8533 ft | 286 kts | 214° |
| 2026-04-22 18:27 | 43.77590 | -1.16989 | 8107 ft | 285 kts | 214° |
| 2026-04-22 18:27 | 43.75954 | -1.18514 | 7675 ft | 282 kts | 212° |
| 2026-04-22 18:27 | 43.74199 | -1.19644 | 7242 ft | 277 kts | 197° |
| 2026-04-22 18:28 | 43.72319 | -1.20187 | 6863 ft | 276 kts | 190° |
| 2026-04-22 18:28 | 43.70432 | -1.20638 | 6490 ft | 274 kts | 190° |
| 2026-04-22 18:28 | 43.68567 | -1.21088 | 6123 ft | 266 kts | 190° |
| 2026-04-22 18:28 | 43.66801 | -1.21518 | 5777 ft | 254 kts | 190° |
| 2026-04-22 18:29 | 43.65092 | -1.21936 | 5440 ft | 244 kts | 190° |
| 2026-04-22 18:29 | 43.63452 | -1.22332 | 5122 ft | 234 kts | 190° |
| 2026-04-22 18:29 | 43.61869 | -1.22712 | 4819 ft | 227 kts | 190° |
| 2026-04-22 18:29 | 43.60343 | -1.23080 | 4554 ft | 215 kts | 190° |
| 2026-04-22 18:30 | 43.58900 | -1.23422 | 4244 ft | 203 kts | 190° |
| 2026-04-22 18:30 | 43.56249 | -1.24050 | 3714 ft | 187 kts | 190° |
| 2026-04-22 18:30 | 43.55017 | -1.24343 | 3471 ft | 172 kts | 190° |
| 2026-04-22 18:31 | 43.53873 | -1.24613 | 3268 ft | 159 kts | 190° |
| 2026-04-22 18:31 | 43.52813 | -1.24860 | 3132 ft | 150 kts | 190° |
| 2026-04-22 18:31 | 43.51807 | -1.25093 | 3016 ft | 147 kts | 190° |
| 2026-04-22 18:31 | 43.50804 | -1.25325 | 2946 ft | 145 kts | 190° |
| 2026-04-22 18:32 | 43.49810 | -1.25557 | 2909 ft | 144 kts | 190° |
| 2026-04-22 18:32 | 43.48814 | -1.25800 | 2800 ft | 145 kts | 194° |
| 2026-04-22 18:32 | 43.47921 | -1.26398 | 2552 ft | 143 kts | 219° |
| 2026-04-22 18:32 | 43.47299 | -1.27447 | 2296 ft | 141 kts | 244° |
| 2026-04-22 18:33 | 43.47057 | -1.28744 | 2035 ft | 141 kts | 269° |
| 2026-04-22 18:33 | 43.47045 | -1.30069 | 1777 ft | 140 kts | 269° |
| 2026-04-22 18:33 | 43.47034 | -1.31405 | 1483 ft | 139 kts | 269° |
| 2026-04-22 18:33 | 43.47022 | -1.32732 | 1165 ft | 139 kts | 269° |
| 2026-04-22 18:34 | 43.47011 | -1.34053 | 932 ft | 136 kts | 269° |
| 2026-04-22 18:34 | 43.46999 | -1.35371 | 909 ft | 138 kts | 269° |
| 2026-04-22 18:34 | 43.46988 | -1.36699 | 910 ft | 139 kts | 269° |
| 2026-04-22 18:34 | 43.46976 | -1.38033 | 909 ft | 139 kts | 269° |
| 2026-04-22 18:35 | 43.46964 | -1.39367 | 908 ft | 139 kts | 269° |
| 2026-04-22 18:35 | 43.46952 | -1.40686 | 910 ft | 139 kts | 269° |
| 2026-04-22 18:35 | 43.46940 | -1.42020 | 909 ft | 139 kts | 269° |
| 2026-04-22 18:35 | 43.46927 | -1.43356 | 910 ft | 139 kts | 269° |
| 2026-04-22 18:36 | 43.46915 | -1.44686 | 907 ft | 139 kts | 269° |
| 2026-04-22 18:36 | 43.46902 | -1.46002 | 905 ft | 139 kts | 269° |
| 2026-04-22 18:36 | 43.46889 | -1.47337 | 754 ft | 139 kts | 269° |
| 2026-04-22 18:36 | 43.46876 | -1.48661 | 583 ft | 138 kts | 269° |
| 2026-04-22 18:37 | 43.46863 | -1.49985 | 406 ft | 138 kts | 269° |
| 2026-04-22 18:37 | 43.46849 | -1.51305 | 252 ft | 137 kts | 269° |
| 2026-04-22 18:37 | 43.46834 | -1.52585 | 253 ft | 109 kts | 269° |
| 2026-04-22 18:37 | 43.46828 | -1.53026 | 256 ft | 20 kts | 270° |
| 2026-04-22 18:38 | 43.46888 | -1.53157 | 256 ft | 17 kts | 332° |
| 2026-04-22 18:38 | 43.46987 | -1.53203 | 257 ft | 15 kts | 3° |
| 2026-04-22 18:38 | 43.47062 | -1.53142 | 257 ft | 9 kts | 27° |
| 2026-04-22 18:39 | 43.47114 | -1.53120 | 257 ft | 0 kts | 14° |